sensor_id;sensor_type;location;lat;lon;timestamp;temperature;humidity
19847;DHT22;10084;50.518;8.588;2023-09-08T00:00:41;16.90;69.80
19847;DHT22;10084;50.518;8.588;2023-09-08T00:03:07;16.90;70.00
19847;DHT22;10084;50.518;8.588;2023-09-08T00:05:33;16.90;70.00
19847;DHT22;10084;50.518;8.588;2023-09-08T00:07:58;16.90;70.10
19847;DHT22;10084;50.518;8.588;2023-09-08T00:10:24;16.80;70.10
19847;DHT22;10084;50.518;8.588;2023-09-08T00:12:49;16.80;70.20
19847;DHT22;10084;50.518;8.588;2023-09-08T00:15:15;16.80;70.20
19847;DHT22;10084;50.518;8.588;2023-09-08T00:17:41;16.70;70.30
19847;DHT22;10084;50.518;8.588;2023-09-08T00:20:07;16.70;70.40
19847;DHT22;10084;50.518;8.588;2023-09-08T00:22:37;16.70;70.40
19847;DHT22;10084;50.518;8.588;2023-09-08T00:25:03;16.60;70.40
19847;DHT22;10084;50.518;8.588;2023-09-08T00:27:30;16.60;70.40
19847;DHT22;10084;50.518;8.588;2023-09-08T00:29:56;16.60;70.60
19847;DHT22;10084;50.518;8.588;2023-09-08T00:32:22;16.60;70.60
19847;DHT22;10084;50.518;8.588;2023-09-08T00:34:48;16.50;70.70
19847;DHT22;10084;50.518;8.588;2023-09-08T00:37:13;16.50;70.60
19847;DHT22;10084;50.518;8.588;2023-09-08T00:39:39;16.50;70.70
19847;DHT22;10084;50.518;8.588;2023-09-08T00:42:05;16.50;70.70
19847;DHT22;10084;50.518;8.588;2023-09-08T00:44:32;16.50;70.80
19847;DHT22;10084;50.518;8.588;2023-09-08T00:46:58;16.40;70.90
19847;DHT22;10084;50.518;8.588;2023-09-08T00:49:24;16.40;70.90
19847;DHT22;10084;50.518;8.588;2023-09-08T00:51:50;16.40;71.00
19847;DHT22;10084;50.518;8.588;2023-09-08T00:54:17;16.40;71.10
19847;DHT22;10084;50.518;8.588;2023-09-08T00:56:44;16.30;71.10
19847;DHT22;10084;50.518;8.588;2023-09-08T00:59:12;16.30;71.20
19847;DHT22;10084;50.518;8.588;2023-09-08T01:01:37;16.30;71.20
19847;DHT22;10084;50.518;8.588;2023-09-08T01:04:03;16.30;71.30
19847;DHT22;10084;50.518;8.588;2023-09-08T01:06:30;16.30;71.40
19847;DHT22;10084;50.518;8.588;2023-09-08T01:08:58;16.30;71.40
19847;DHT22;10084;50.518;8.588;2023-09-08T01:11:25;16.30;71.50
19847;DHT22;10084;50.518;8.588;2023-09-08T01:13:51;16.30;71.50
19847;DHT22;10084;50.518;8.588;2023-09-08T01:16:17;16.20;71.50
19847;DHT22;10084;50.518;8.588;2023-09-08T01:18:46;16.20;71.60
19847;DHT22;10084;50.518;8.588;2023-09-08T01:26:26;16.20;71.80
19847;DHT22;10084;50.518;8.588;2023-09-08T01:28:53;16.20;71.90
19847;DHT22;10084;50.518;8.588;2023-09-08T01:31:20;16.10;71.90
19847;DHT22;10084;50.518;8.588;2023-09-08T01:33:46;16.10;72.00
19847;DHT22;10084;50.518;8.588;2023-09-08T01:36:12;16.10;72.00
19847;DHT22;10084;50.518;8.588;2023-09-08T01:38:38;16.10;72.10
19847;DHT22;10084;50.518;8.588;2023-09-08T01:41:04;16.10;72.10
19847;DHT22;10084;50.518;8.588;2023-09-08T01:43:29;16.10;72.20
19847;DHT22;10084;50.518;8.588;2023-09-08T01:45:55;16.10;72.30
19847;DHT22;10084;50.518;8.588;2023-09-08T01:48:21;16.10;72.40
19847;DHT22;10084;50.518;8.588;2023-09-08T01:50:47;16.00;72.30
19847;DHT22;10084;50.518;8.588;2023-09-08T01:53:13;16.00;72.40
19847;DHT22;10084;50.518;8.588;2023-09-08T01:55:39;16.00;72.40
19847;DHT22;10084;50.518;8.588;2023-09-08T01:58:04;16.10;72.50
19847;DHT22;10084;50.518;8.588;2023-09-08T02:00:30;16.00;72.50
19847;DHT22;10084;50.518;8.588;2023-09-08T02:02:56;16.00;72.50
19847;DHT22;10084;50.518;8.588;2023-09-08T02:05:21;16.00;72.60
19847;DHT22;10084;50.518;8.588;2023-09-08T02:07:48;15.90;72.70
19847;DHT22;10084;50.518;8.588;2023-09-08T02:10:14;15.90;72.70
19847;DHT22;10084;50.518;8.588;2023-09-08T02:12:40;15.90;72.70
19847;DHT22;10084;50.518;8.588;2023-09-08T02:15:06;15.90;72.70
19847;DHT22;10084;50.518;8.588;2023-09-08T02:17:33;15.90;72.80
19847;DHT22;10084;50.518;8.588;2023-09-08T02:19:58;15.80;72.80
19847;DHT22;10084;50.518;8.588;2023-09-08T02:22:24;15.80;72.80
19847;DHT22;10084;50.518;8.588;2023-09-08T02:24:50;15.80;72.90
19847;DHT22;10084;50.518;8.588;2023-09-08T02:27:18;15.80;72.90
19847;DHT22;10084;50.518;8.588;2023-09-08T02:29:44;15.80;73.00
19847;DHT22;10084;50.518;8.588;2023-09-08T02:32:10;15.70;73.00
19847;DHT22;10084;50.518;8.588;2023-09-08T02:34:36;15.70;73.10
19847;DHT22;10084;50.518;8.588;2023-09-08T02:37:03;15.70;73.20
19847;DHT22;10084;50.518;8.588;2023-09-08T02:39:29;15.70;73.20
19847;DHT22;10084;50.518;8.588;2023-09-08T02:41:55;15.60;73.30
19847;DHT22;10084;50.518;8.588;2023-09-08T02:44:21;15.60;73.40
19847;DHT22;10084;50.518;8.588;2023-09-08T02:46:51;15.60;73.40
19847;DHT22;10084;50.518;8.588;2023-09-08T02:49:16;15.60;73.40
19847;DHT22;10084;50.518;8.588;2023-09-08T02:51:43;15.60;73.40
19847;DHT22;10084;50.518;8.588;2023-09-08T02:54:08;15.50;73.40
19847;DHT22;10084;50.518;8.588;2023-09-08T02:56:34;15.50;73.50
19847;DHT22;10084;50.518;8.588;2023-09-08T02:59:00;15.50;73.60
19847;DHT22;10084;50.518;8.588;2023-09-08T03:01:25;15.50;73.70
19847;DHT22;10084;50.518;8.588;2023-09-08T03:03:51;15.40;73.80
19847;DHT22;10084;50.518;8.588;2023-09-08T03:06:19;15.40;73.80
19847;DHT22;10084;50.518;8.588;2023-09-08T03:08:46;15.40;73.80
19847;DHT22;10084;50.518;8.588;2023-09-08T03:11:12;15.40;73.90
19847;DHT22;10084;50.518;8.588;2023-09-08T03:13:39;15.40;74.00
19847;DHT22;10084;50.518;8.588;2023-09-08T03:16:06;15.40;74.00
19847;DHT22;10084;50.518;8.588;2023-09-08T03:18:33;15.40;74.10
19847;DHT22;10084;50.518;8.588;2023-09-08T03:20:59;15.40;74.20
19847;DHT22;10084;50.518;8.588;2023-09-08T03:23:27;15.40;74.20
19847;DHT22;10084;50.518;8.588;2023-09-08T03:25:52;15.40;74.20
19847;DHT22;10084;50.518;8.588;2023-09-08T03:28:18;15.40;74.20
19847;DHT22;10084;50.518;8.588;2023-09-08T03:30:44;15.40;74.30
19847;DHT22;10084;50.518;8.588;2023-09-08T03:33:09;15.30;74.30
19847;DHT22;10084;50.518;8.588;2023-09-08T03:35:36;15.30;74.40
19847;DHT22;10084;50.518;8.588;2023-09-08T03:38:01;15.30;74.50
19847;DHT22;10084;50.518;8.588;2023-09-08T03:40:27;15.20;74.50
19847;DHT22;10084;50.518;8.588;2023-09-08T03:42:53;15.20;74.60
19847;DHT22;10084;50.518;8.588;2023-09-08T03:45:19;15.20;74.50
19847;DHT22;10084;50.518;8.588;2023-09-08T03:47:44;15.20;74.70
19847;DHT22;10084;50.518;8.588;2023-09-08T03:50:10;15.20;74.60
19847;DHT22;10084;50.518;8.588;2023-09-08T03:52:36;15.20;74.80
19847;DHT22;10084;50.518;8.588;2023-09-08T03:55:01;15.10;74.70
19847;DHT22;10084;50.518;8.588;2023-09-08T03:57:27;15.10;74.70
19847;DHT22;10084;50.518;8.588;2023-09-08T03:59:53;15.10;74.80
19847;DHT22;10084;50.518;8.588;2023-09-08T04:02:19;15.10;74.80
19847;DHT22;10084;50.518;8.588;2023-09-08T04:04:45;15.10;74.80
19847;DHT22;10084;50.518;8.588;2023-09-08T04:07:10;15.00;74.80
19847;DHT22;10084;50.518;8.588;2023-09-08T04:09:36;15.00;74.90
19847;DHT22;10084;50.518;8.588;2023-09-08T04:12:02;15.00;74.90
19847;DHT22;10084;50.518;8.588;2023-09-08T04:14:29;15.00;75.00
19847;DHT22;10084;50.518;8.588;2023-09-08T04:16:55;14.90;75.00
19847;DHT22;10084;50.518;8.588;2023-09-08T04:19:21;14.90;75.00
19847;DHT22;10084;50.518;8.588;2023-09-08T04:21:47;14.90;75.10
19847;DHT22;10084;50.518;8.588;2023-09-08T04:24:12;14.90;75.10
19847;DHT22;10084;50.518;8.588;2023-09-08T04:26:38;14.90;75.10
19847;DHT22;10084;50.518;8.588;2023-09-08T04:29:04;14.80;75.10
19847;DHT22;10084;50.518;8.588;2023-09-08T04:31:30;14.80;75.20
19847;DHT22;10084;50.518;8.588;2023-09-08T04:33:56;14.80;75.20
19847;DHT22;10084;50.518;8.588;2023-09-08T04:36:22;14.80;75.20
19847;DHT22;10084;50.518;8.588;2023-09-08T04:38:47;14.80;75.30
19847;DHT22;10084;50.518;8.588;2023-09-08T04:41:13;14.70;75.30
19847;DHT22;10084;50.518;8.588;2023-09-08T04:43:39;14.70;75.40
19847;DHT22;10084;50.518;8.588;2023-09-08T04:46:05;14.70;75.50
19847;DHT22;10084;50.518;8.588;2023-09-08T04:48:31;14.70;75.50
19847;DHT22;10084;50.518;8.588;2023-09-08T04:50:57;14.70;75.60
19847;DHT22;10084;50.518;8.588;2023-09-08T04:53:23;14.70;75.60
19847;DHT22;10084;50.518;8.588;2023-09-08T04:55:48;14.70;75.70
19847;DHT22;10084;50.518;8.588;2023-09-08T04:58:14;14.70;75.70
19847;DHT22;10084;50.518;8.588;2023-09-08T05:00:40;14.60;75.70
19847;DHT22;10084;50.518;8.588;2023-09-08T05:03:07;14.60;75.70
19847;DHT22;10084;50.518;8.588;2023-09-08T05:05:32;14.60;75.80
19847;DHT22;10084;50.518;8.588;2023-09-08T05:07:58;14.60;75.90
19847;DHT22;10084;50.518;8.588;2023-09-08T05:10:24;14.60;76.00
19847;DHT22;10084;50.518;8.588;2023-09-08T05:12:51;14.70;76.10
19847;DHT22;10084;50.518;8.588;2023-09-08T05:15:17;14.70;76.20
19847;DHT22;10084;50.518;8.588;2023-09-08T05:17:48;14.80;76.30
19847;DHT22;10084;50.518;8.588;2023-09-08T05:20:15;14.80;76.50
19847;DHT22;10084;50.518;8.588;2023-09-08T05:22:41;15.00;76.80
19847;DHT22;10084;50.518;8.588;2023-09-08T05:25:07;15.10;77.00
19847;DHT22;10084;50.518;8.588;2023-09-08T05:27:33;15.20;77.20
19847;DHT22;10084;50.518;8.588;2023-09-08T05:29:58;15.40;77.20
19847;DHT22;10084;50.518;8.588;2023-09-08T05:32:24;15.60;77.30
19847;DHT22;10084;50.518;8.588;2023-09-08T05:34:50;15.80;77.40
19847;DHT22;10084;50.518;8.588;2023-09-08T05:37:16;16.00;77.50
19847;DHT22;10084;50.518;8.588;2023-09-08T05:39:43;16.30;77.40
19847;DHT22;10084;50.518;8.588;2023-09-08T05:42:08;16.50;77.30
19847;DHT22;10084;50.518;8.588;2023-09-08T05:44:34;16.80;77.20
19847;DHT22;10084;50.518;8.588;2023-09-08T05:47:01;17.00;77.10
19847;DHT22;10084;50.518;8.588;2023-09-08T05:49:26;17.30;77.00
19847;DHT22;10084;50.518;8.588;2023-09-08T05:51:52;17.50;76.90
19847;DHT22;10084;50.518;8.588;2023-09-08T05:54:19;17.80;76.80
19847;DHT22;10084;50.518;8.588;2023-09-08T05:56:45;18.10;76.60
19847;DHT22;10084;50.518;8.588;2023-09-08T05:59:11;18.40;76.50
19847;DHT22;10084;50.518;8.588;2023-09-08T06:01:38;18.70;76.30
19847;DHT22;10084;50.518;8.588;2023-09-08T06:04:06;18.90;75.90
19847;DHT22;10084;50.518;8.588;2023-09-08T06:06:33;19.10;75.70
19847;DHT22;10084;50.518;8.588;2023-09-08T06:08:59;19.10;74.50
19847;DHT22;10084;50.518;8.588;2023-09-08T06:11:26;19.10;74.30
19847;DHT22;10084;50.518;8.588;2023-09-08T06:13:51;19.10;74.60
19847;DHT22;10084;50.518;8.588;2023-09-08T06:16:21;19.30;74.80
19847;DHT22;10084;50.518;8.588;2023-09-08T06:18:48;19.60;74.80
19847;DHT22;10084;50.518;8.588;2023-09-08T06:21:17;19.80;74.50
19847;DHT22;10084;50.518;8.588;2023-09-08T06:23:43;20.10;74.10
19847;DHT22;10084;50.518;8.588;2023-09-08T06:26:09;20.40;74.00
19847;DHT22;10084;50.518;8.588;2023-09-08T06:28:36;20.70;73.50
19847;DHT22;10084;50.518;8.588;2023-09-08T06:31:03;20.90;73.00
19847;DHT22;10084;50.518;8.588;2023-09-08T06:33:30;21.00;72.70
19847;DHT22;10084;50.518;8.588;2023-09-08T06:35:56;21.10;72.50
19847;DHT22;10084;50.518;8.588;2023-09-08T06:38:22;21.10;72.00
19847;DHT22;10084;50.518;8.588;2023-09-08T06:40:47;21.20;72.20
19847;DHT22;10084;50.518;8.588;2023-09-08T06:43:14;21.30;72.00
19847;DHT22;10084;50.518;8.588;2023-09-08T06:46:02;21.40;72.00
19847;DHT22;10084;50.518;8.588;2023-09-08T06:48:48;21.60;71.80
19847;DHT22;10084;50.518;8.588;2023-09-08T06:51:13;21.80;71.70
19847;DHT22;10084;50.518;8.588;2023-09-08T06:53:39;22.00;71.50
19847;DHT22;10084;50.518;8.588;2023-09-08T06:56:06;22.20;71.10
19847;DHT22;10084;50.518;8.588;2023-09-08T06:58:32;22.50;70.60
19847;DHT22;10084;50.518;8.588;2023-09-08T07:00:58;22.70;69.80
19847;DHT22;10084;50.518;8.588;2023-09-08T07:03:25;22.90;69.30
19847;DHT22;10084;50.518;8.588;2023-09-08T07:05:52;23.00;69.80
19847;DHT22;10084;50.518;8.588;2023-09-08T07:08:18;23.10;69.00
19847;DHT22;10084;50.518;8.588;2023-09-08T07:10:45;23.20;69.10
19847;DHT22;10084;50.518;8.588;2023-09-08T07:13:10;23.40;69.20
19847;DHT22;10084;50.518;8.588;2023-09-08T07:15:37;23.70;69.30
19847;DHT22;10084;50.518;8.588;2023-09-08T07:18:03;24.00;69.40
19847;DHT22;10084;50.518;8.588;2023-09-08T07:20:29;24.50;69.30
19847;DHT22;10084;50.518;8.588;2023-09-08T07:22:55;25.10;69.10
19847;DHT22;10084;50.518;8.588;2023-09-08T07:25:21;25.70;68.70
19847;DHT22;10084;50.518;8.588;2023-09-08T07:27:47;26.40;68.70
19847;DHT22;10084;50.518;8.588;2023-09-08T07:30:13;27.00;68.70
19847;DHT22;10084;50.518;8.588;2023-09-08T07:32:39;27.80;69.00
19847;DHT22;10084;50.518;8.588;2023-09-08T07:35:05;28.60;67.80
19847;DHT22;10084;50.518;8.588;2023-09-08T07:37:31;29.30;66.80
19847;DHT22;10084;50.518;8.588;2023-09-08T07:39:57;30.10;65.70
19847;DHT22;10084;50.518;8.588;2023-09-08T07:42:23;30.90;64.50
19847;DHT22;10084;50.518;8.588;2023-09-08T07:44:51;31.80;63.10
19847;DHT22;10084;50.518;8.588;2023-09-08T07:47:16;32.50;61.70
19847;DHT22;10084;50.518;8.588;2023-09-08T07:49:45;33.10;60.40
19847;DHT22;10084;50.518;8.588;2023-09-08T07:52:11;33.80;58.60
19847;DHT22;10084;50.518;8.588;2023-09-08T07:54:37;34.50;56.60
19847;DHT22;10084;50.518;8.588;2023-09-08T07:57:03;35.10;55.00
19847;DHT22;10084;50.518;8.588;2023-09-08T07:59:28;35.70;53.90
19847;DHT22;10084;50.518;8.588;2023-09-08T08:01:54;36.10;53.00
19847;DHT22;10084;50.518;8.588;2023-09-08T08:04:20;36.50;52.10
19847;DHT22;10084;50.518;8.588;2023-09-08T08:06:45;36.90;51.30
19847;DHT22;10084;50.518;8.588;2023-09-08T08:09:13;37.30;50.20
19847;DHT22;10084;50.518;8.588;2023-09-08T08:11:38;37.80;49.00
19847;DHT22;10084;50.518;8.588;2023-09-08T08:14:04;38.20;47.50
19847;DHT22;10084;50.518;8.588;2023-09-08T08:16:29;38.50;46.70
19847;DHT22;10084;50.518;8.588;2023-09-08T08:18:55;38.70;45.80
19847;DHT22;10084;50.518;8.588;2023-09-08T08:21:21;39.00;45.10
19847;DHT22;10084;50.518;8.588;2023-09-08T08:23:49;39.30;44.30
19847;DHT22;10084;50.518;8.588;2023-09-08T08:26:14;39.70;43.70
19847;DHT22;10084;50.518;8.588;2023-09-08T08:28:40;40.00;42.90
19847;DHT22;10084;50.518;8.588;2023-09-08T08:31:06;40.40;42.20
19847;DHT22;10084;50.518;8.588;2023-09-08T08:33:32;40.70;41.60
19847;DHT22;10084;50.518;8.588;2023-09-08T08:35:58;41.00;40.90
19847;DHT22;10084;50.518;8.588;2023-09-08T08:38:23;41.30;40.10
19847;DHT22;10084;50.518;8.588;2023-09-08T08:40:49;41.70;39.20
19847;DHT22;10084;50.518;8.588;2023-09-08T08:43:15;42.00;38.50
19847;DHT22;10084;50.518;8.588;2023-09-08T08:45:42;42.20;37.60
19847;DHT22;10084;50.518;8.588;2023-09-08T08:48:08;42.40;36.60
19847;DHT22;10084;50.518;8.588;2023-09-08T08:50:35;42.50;36.00
19847;DHT22;10084;50.518;8.588;2023-09-08T08:53:01;42.30;35.30
19847;DHT22;10084;50.518;8.588;2023-09-08T08:55:30;41.80;34.80
19847;DHT22;10084;50.518;8.588;2023-09-08T08:58:03;41.20;34.60
19847;DHT22;10084;50.518;8.588;2023-09-08T09:00:29;40.40;34.70
19847;DHT22;10084;50.518;8.588;2023-09-08T09:02:58;39.50;34.70
19847;DHT22;10084;50.518;8.588;2023-09-08T09:05:24;38.70;35.10
19847;DHT22;10084;50.518;8.588;2023-09-08T09:07:50;38.20;35.20
19847;DHT22;10084;50.518;8.588;2023-09-08T09:10:17;37.70;35.30
19847;DHT22;10084;50.518;8.588;2023-09-08T09:12:43;37.20;35.60
19847;DHT22;10084;50.518;8.588;2023-09-08T09:15:09;36.70;36.00
19847;DHT22;10084;50.518;8.588;2023-09-08T09:17:36;36.20;36.50
19847;DHT22;10084;50.518;8.588;2023-09-08T09:20:15;35.80;37.00
19847;DHT22;10084;50.518;8.588;2023-09-08T09:22:43;35.40;37.70
19847;DHT22;10084;50.518;8.588;2023-09-08T09:25:09;35.00;38.00
19847;DHT22;10084;50.518;8.588;2023-09-08T09:27:36;34.70;38.50
19847;DHT22;10084;50.518;8.588;2023-09-08T09:30:04;34.50;38.80
19847;DHT22;10084;50.518;8.588;2023-09-08T09:32:30;34.30;39.00
19847;DHT22;10084;50.518;8.588;2023-09-08T09:34:57;34.10;39.50
19847;DHT22;10084;50.518;8.588;2023-09-08T09:37:23;33.90;39.50
19847;DHT22;10084;50.518;8.588;2023-09-08T09:39:50;33.70;39.60
19847;DHT22;10084;50.518;8.588;2023-09-08T09:42:17;33.30;39.70
19847;DHT22;10084;50.518;8.588;2023-09-08T09:44:43;33.10;40.10
19847;DHT22;10084;50.518;8.588;2023-09-08T09:47:09;32.80;40.20
19847;DHT22;10084;50.518;8.588;2023-09-08T09:49:46;32.50;40.60
19847;DHT22;10084;50.518;8.588;2023-09-08T09:52:21;32.20;40.90
19847;DHT22;10084;50.518;8.588;2023-09-08T09:54:48;32.10;41.10
19847;DHT22;10084;50.518;8.588;2023-09-08T09:57:16;32.00;41.10
19847;DHT22;10084;50.518;8.588;2023-09-08T09:59:45;31.90;41.30
19847;DHT22;10084;50.518;8.588;2023-09-08T10:02:15;31.80;41.30
19847;DHT22;10084;50.518;8.588;2023-09-08T10:04:41;31.80;41.40
19847;DHT22;10084;50.518;8.588;2023-09-08T10:07:07;31.70;41.30
19847;DHT22;10084;50.518;8.588;2023-09-08T10:09:35;31.70;41.30
19847;DHT22;10084;50.518;8.588;2023-09-08T10:12:04;31.50;41.20
19847;DHT22;10084;50.518;8.588;2023-09-08T10:14:31;31.40;41.40
19847;DHT22;10084;50.518;8.588;2023-09-08T10:17:00;31.20;41.40
19847;DHT22;10084;50.518;8.588;2023-09-08T10:19:26;31.10;41.50
19847;DHT22;10084;50.518;8.588;2023-09-08T10:21:55;31.10;41.60
19847;DHT22;10084;50.518;8.588;2023-09-08T10:24:27;31.00;41.70
19847;DHT22;10084;50.518;8.588;2023-09-08T10:27:07;31.20;41.70
19847;DHT22;10084;50.518;8.588;2023-09-08T10:29:33;31.40;41.80
19847;DHT22;10084;50.518;8.588;2023-09-08T10:32:00;31.40;41.70
19847;DHT22;10084;50.518;8.588;2023-09-08T10:34:26;31.50;41.80
19847;DHT22;10084;50.518;8.588;2023-09-08T10:36:53;31.60;41.70
19847;DHT22;10084;50.518;8.588;2023-09-08T10:39:35;31.70;41.70
19847;DHT22;10084;50.518;8.588;2023-09-08T10:47:23;31.60;41.70
19847;DHT22;10084;50.518;8.588;2023-09-08T10:49:50;31.70;41.80
19847;DHT22;10084;50.518;8.588;2023-09-08T10:52:21;31.80;41.80
19847;DHT22;10084;50.518;8.588;2023-09-08T10:54:52;31.90;41.90
19847;DHT22;10084;50.518;8.588;2023-09-08T10:57:21;32.00;41.70
19847;DHT22;10084;50.518;8.588;2023-09-08T10:59:54;32.10;41.60
19847;DHT22;10084;50.518;8.588;2023-09-08T11:02:39;32.10;41.60
19847;DHT22;10084;50.518;8.588;2023-09-08T11:05:12;32.10;41.60
19847;DHT22;10084;50.518;8.588;2023-09-08T11:07:43;32.10;41.60
19847;DHT22;10084;50.518;8.588;2023-09-08T11:10:11;32.00;41.50
19847;DHT22;10084;50.518;8.588;2023-09-08T11:12:37;32.00;41.60
19847;DHT22;10084;50.518;8.588;2023-09-08T11:15:05;31.90;41.60
19847;DHT22;10084;50.518;8.588;2023-09-08T11:17:33;31.90;41.60
19847;DHT22;10084;50.518;8.588;2023-09-08T11:20:00;31.90;41.60
19847;DHT22;10084;50.518;8.588;2023-09-08T11:22:26;32.00;41.70
19847;DHT22;10084;50.518;8.588;2023-09-08T11:24:53;31.90;41.60
19847;DHT22;10084;50.518;8.588;2023-09-08T11:27:20;31.90;41.70
19847;DHT22;10084;50.518;8.588;2023-09-08T11:29:46;31.80;41.70
19847;DHT22;10084;50.518;8.588;2023-09-08T11:32:13;31.70;41.70
19847;DHT22;10084;50.518;8.588;2023-09-08T11:34:38;31.60;41.70
19847;DHT22;10084;50.518;8.588;2023-09-08T11:37:13;31.50;41.90
19847;DHT22;10084;50.518;8.588;2023-09-08T11:39:40;31.30;42.00
19847;DHT22;10084;50.518;8.588;2023-09-08T11:42:12;31.30;42.30
19847;DHT22;10084;50.518;8.588;2023-09-08T11:44:38;31.40;42.50
19847;DHT22;10084;50.518;8.588;2023-09-08T11:47:06;31.40;42.50
19847;DHT22;10084;50.518;8.588;2023-09-08T11:49:40;31.40;42.50
19847;DHT22;10084;50.518;8.588;2023-09-08T11:52:06;31.40;42.50
19847;DHT22;10084;50.518;8.588;2023-09-08T11:54:36;31.40;42.50
19847;DHT22;10084;50.518;8.588;2023-09-08T11:57:04;31.30;42.60
19847;DHT22;10084;50.518;8.588;2023-09-08T11:59:32;31.20;42.60
19847;DHT22;10084;50.518;8.588;2023-09-08T12:01:58;31.20;42.80
19847;DHT22;10084;50.518;8.588;2023-09-08T12:04:24;31.20;42.90
19847;DHT22;10084;50.518;8.588;2023-09-08T12:06:52;31.20;42.80
19847;DHT22;10084;50.518;8.588;2023-09-08T12:09:18;31.10;42.80
19847;DHT22;10084;50.518;8.588;2023-09-08T12:11:43;31.10;43.00
19847;DHT22;10084;50.518;8.588;2023-09-08T12:14:14;31.10;42.90
19847;DHT22;10084;50.518;8.588;2023-09-08T12:16:41;31.10;43.00
19847;DHT22;10084;50.518;8.588;2023-09-08T12:19:08;31.20;43.00
19847;DHT22;10084;50.518;8.588;2023-09-08T12:21:55;31.20;43.00
19847;DHT22;10084;50.518;8.588;2023-09-08T12:27:19;31.30;42.90
19847;DHT22;10084;50.518;8.588;2023-09-08T12:30:21;31.30;42.90
19847;DHT22;10084;50.518;8.588;2023-09-08T12:32:48;31.30;42.90
19847;DHT22;10084;50.518;8.588;2023-09-08T12:35:21;31.40;43.00
19847;DHT22;10084;50.518;8.588;2023-09-08T12:37:56;31.40;42.90
19847;DHT22;10084;50.518;8.588;2023-09-08T12:40:23;31.40;42.80
19847;DHT22;10084;50.518;8.588;2023-09-08T12:42:49;31.40;42.80
19847;DHT22;10084;50.518;8.588;2023-09-08T12:45:15;31.40;42.80
19847;DHT22;10084;50.518;8.588;2023-09-08T12:47:40;31.30;42.70
19847;DHT22;10084;50.518;8.588;2023-09-08T12:50:06;31.30;42.70
19847;DHT22;10084;50.518;8.588;2023-09-08T12:52:32;31.20;42.70
19847;DHT22;10084;50.518;8.588;2023-09-08T12:54:59;31.20;42.70
19847;DHT22;10084;50.518;8.588;2023-09-08T12:57:24;31.20;42.60
19847;DHT22;10084;50.518;8.588;2023-09-08T12:59:50;31.20;42.70
19847;DHT22;10084;50.518;8.588;2023-09-08T13:02:20;31.10;42.70
19847;DHT22;10084;50.518;8.588;2023-09-08T13:04:45;31.10;42.80
19847;DHT22;10084;50.518;8.588;2023-09-08T13:07:17;31.10;42.80
19847;DHT22;10084;50.518;8.588;2023-09-08T13:09:43;31.00;42.70
19847;DHT22;10084;50.518;8.588;2023-09-08T13:12:09;31.10;42.80
19847;DHT22;10084;50.518;8.588;2023-09-08T13:14:36;31.10;42.90
19847;DHT22;10084;50.518;8.588;2023-09-08T13:17:02;31.20;42.90
19847;DHT22;10084;50.518;8.588;2023-09-08T13:19:28;31.10;42.80
19847;DHT22;10084;50.518;8.588;2023-09-08T13:21:55;31.00;42.80
19847;DHT22;10084;50.518;8.588;2023-09-08T13:24:20;31.00;42.90
19847;DHT22;10084;50.518;8.588;2023-09-08T13:26:48;31.00;42.90
19847;DHT22;10084;50.518;8.588;2023-09-08T13:29:13;31.00;42.90
19847;DHT22;10084;50.518;8.588;2023-09-08T13:31:39;31.00;42.80
19847;DHT22;10084;50.518;8.588;2023-09-08T13:34:05;31.00;42.70
19847;DHT22;10084;50.518;8.588;2023-09-08T13:36:31;31.00;42.60
19847;DHT22;10084;50.518;8.588;2023-09-08T13:38:56;30.90;42.40
19847;DHT22;10084;50.518;8.588;2023-09-08T13:41:23;30.90;42.60
19847;DHT22;10084;50.518;8.588;2023-09-08T13:43:49;30.90;42.60
19847;DHT22;10084;50.518;8.588;2023-09-08T13:46:14;30.90;42.50
19847;DHT22;10084;50.518;8.588;2023-09-08T13:48:40;30.90;42.40
19847;DHT22;10084;50.518;8.588;2023-09-08T13:51:06;30.90;42.50
19847;DHT22;10084;50.518;8.588;2023-09-08T13:53:31;30.90;42.40
19847;DHT22;10084;50.518;8.588;2023-09-08T13:55:57;30.80;42.30
19847;DHT22;10084;50.518;8.588;2023-09-08T13:58:23;30.80;42.30
19847;DHT22;10084;50.518;8.588;2023-09-08T14:00:48;30.80;42.30
19847;DHT22;10084;50.518;8.588;2023-09-08T14:03:16;30.70;42.00
19847;DHT22;10084;50.518;8.588;2023-09-08T14:05:42;30.70;41.90
19847;DHT22;10084;50.518;8.588;2023-09-08T14:08:07;30.70;42.00
19847;DHT22;10084;50.518;8.588;2023-09-08T14:10:33;30.60;42.00
19847;DHT22;10084;50.518;8.588;2023-09-08T14:12:59;30.60;42.00
19847;DHT22;10084;50.518;8.588;2023-09-08T14:15:24;30.60;42.10
19847;DHT22;10084;50.518;8.588;2023-09-08T14:17:50;30.60;42.10
19847;DHT22;10084;50.518;8.588;2023-09-08T14:20:16;30.50;41.90
19847;DHT22;10084;50.518;8.588;2023-09-08T14:22:41;30.50;41.90
19847;DHT22;10084;50.518;8.588;2023-09-08T14:25:07;30.50;41.80
19847;DHT22;10084;50.518;8.588;2023-09-08T14:27:33;30.40;41.90
19847;DHT22;10084;50.518;8.588;2023-09-08T14:30:00;30.40;41.80
19847;DHT22;10084;50.518;8.588;2023-09-08T14:32:26;30.40;41.90
19847;DHT22;10084;50.518;8.588;2023-09-08T14:34:52;30.40;42.00
19847;DHT22;10084;50.518;8.588;2023-09-08T14:37:17;30.30;41.90
19847;DHT22;10084;50.518;8.588;2023-09-08T14:39:43;30.40;41.90
19847;DHT22;10084;50.518;8.588;2023-09-08T14:42:08;30.30;41.70
19847;DHT22;10084;50.518;8.588;2023-09-08T14:44:35;30.30;41.70
19847;DHT22;10084;50.518;8.588;2023-09-08T14:47:00;30.30;41.60
19847;DHT22;10084;50.518;8.588;2023-09-08T14:49:26;30.30;41.70
19847;DHT22;10084;50.518;8.588;2023-09-08T14:51:52;30.20;41.70
19847;DHT22;10084;50.518;8.588;2023-09-08T14:54:17;30.10;41.70
19847;DHT22;10084;50.518;8.588;2023-09-08T14:56:43;30.00;41.70
19847;DHT22;10084;50.518;8.588;2023-09-08T14:59:09;30.00;41.80
19847;DHT22;10084;50.518;8.588;2023-09-08T15:01:35;30.00;41.80
19847;DHT22;10084;50.518;8.588;2023-09-08T15:04:01;29.90;41.80
19847;DHT22;10084;50.518;8.588;2023-09-08T15:06:27;29.90;42.00
19847;DHT22;10084;50.518;8.588;2023-09-08T15:08:52;29.90;42.10
19847;DHT22;10084;50.518;8.588;2023-09-08T15:11:18;29.80;42.10
19847;DHT22;10084;50.518;8.588;2023-09-08T15:13:44;29.80;42.20
19847;DHT22;10084;50.518;8.588;2023-09-08T15:16:10;29.70;42.10
19847;DHT22;10084;50.518;8.588;2023-09-08T15:18:35;29.70;42.10
19847;DHT22;10084;50.518;8.588;2023-09-08T15:21:01;29.70;42.10
19847;DHT22;10084;50.518;8.588;2023-09-08T15:23:27;29.70;42.20
19847;DHT22;10084;50.518;8.588;2023-09-08T15:25:53;29.60;42.10
19847;DHT22;10084;50.518;8.588;2023-09-08T15:28:19;29.60;42.20
19847;DHT22;10084;50.518;8.588;2023-09-08T15:30:49;29.60;42.40
19847;DHT22;10084;50.518;8.588;2023-09-08T15:33:15;29.60;42.40
19847;DHT22;10084;50.518;8.588;2023-09-08T15:35:42;29.50;42.30
19847;DHT22;10084;50.518;8.588;2023-09-08T15:38:07;29.50;42.30
19847;DHT22;10084;50.518;8.588;2023-09-08T15:40:33;29.40;42.40